sensor_id;sensor_type;location;lat;lon;timestamp;P1;durP1;ratioP1;P2;durP2;ratioP2
2546;SDS011;1283;47.982;7.834;2024-03-07T00:01:30;10.75;;;6.13;;
2546;SDS011;1283;47.982;7.834;2024-03-07T00:03:57;9.45;;;6.50;;
2546;SDS011;1283;47.982;7.834;2024-03-07T00:06:23;9.18;;;6.20;;
2546;SDS011;1283;47.982;7.834;2024-03-07T00:08:49;10.15;;;6.53;;
2546;SDS011;1283;47.982;7.834;2024-03-07T00:11:15;8.90;;;5.93;;
2546;SDS011;1283;47.982;7.834;2024-03-07T00:13:42;11.65;;;6.25;;
2546;SDS011;1283;47.982;7.834;2024-03-07T00:16:08;8.98;;;6.10;;
2546;SDS011;1283;47.982;7.834;2024-03-07T00:18:38;8.77;;;5.88;;
2546;SDS011;1283;47.982;7.834;2024-03-07T00:21:04;9.00;;;6.10;;
2546;SDS011;1283;47.982;7.834;2024-03-07T00:23:31;8.25;;;5.68;;
2546;SDS011;1283;47.982;7.834;2024-03-07T00:25:58;9.32;;;5.72;;
2546;SDS011;1283;47.982;7.834;2024-03-07T00:28:25;11.45;;;6.68;;
2546;SDS011;1283;47.982;7.834;2024-03-07T00:30:57;13.10;;;7.07;;
2546;SDS011;1283;47.982;7.834;2024-03-07T00:33:23;9.50;;;6.60;;
2546;SDS011;1283;47.982;7.834;2024-03-07T00:35:51;8.63;;;6.30;;
2546;SDS011;1283;47.982;7.834;2024-03-07T00:38:18;10.05;;;6.63;;
2546;SDS011;1283;47.982;7.834;2024-03-07T00:40:45;9.57;;;5.93;;
2546;SDS011;1283;47.982;7.834;2024-03-07T00:43:12;8.43;;;6.05;;
2546;SDS011;1283;47.982;7.834;2024-03-07T00:45:38;10.15;;;6.07;;
2546;SDS011;1283;47.982;7.834;2024-03-07T00:48:05;10.20;;;6.38;;
2546;SDS011;1283;47.982;7.834;2024-03-07T00:50:32;9.73;;;5.75;;
2546;SDS011;1283;47.982;7.834;2024-03-07T00:53:00;7.82;;;5.40;;
2546;SDS011;1283;47.982;7.834;2024-03-07T00:55:26;9.15;;;5.60;;
2546;SDS011;1283;47.982;7.834;2024-03-07T00:57:52;7.75;;;5.43;;
2546;SDS011;1283;47.982;7.834;2024-03-07T01:00:19;9.18;;;6.07;;
2546;SDS011;1283;47.982;7.834;2024-03-07T01:02:46;8.10;;;5.50;;
2546;SDS011;1283;47.982;7.834;2024-03-07T01:05:13;8.45;;;5.82;;
2546;SDS011;1283;47.982;7.834;2024-03-07T01:07:39;7.60;;;5.15;;
2546;SDS011;1283;47.982;7.834;2024-03-07T01:10:08;8.05;;;4.80;;
2546;SDS011;1283;47.982;7.834;2024-03-07T01:12:34;8.45;;;5.28;;
2546;SDS011;1283;47.982;7.834;2024-03-07T01:15:01;9.55;;;5.70;;
2546;SDS011;1283;47.982;7.834;2024-03-07T01:17:29;8.13;;;5.00;;
2546;SDS011;1283;47.982;7.834;2024-03-07T01:19:55;7.95;;;5.05;;
2546;SDS011;1283;47.982;7.834;2024-03-07T01:22:23;7.78;;;5.18;;
2546;SDS011;1283;47.982;7.834;2024-03-07T01:24:49;8.43;;;4.95;;
2546;SDS011;1283;47.982;7.834;2024-03-07T01:27:17;7.05;;;4.97;;
2546;SDS011;1283;47.982;7.834;2024-03-07T01:29:44;8.27;;;5.40;;
2546;SDS011;1283;47.982;7.834;2024-03-07T01:32:10;7.32;;;4.97;;
2546;SDS011;1283;47.982;7.834;2024-03-07T01:34:37;8.05;;;4.85;;
2546;SDS011;1283;47.982;7.834;2024-03-07T01:37:04;9.65;;;5.30;;
2546;SDS011;1283;47.982;7.834;2024-03-07T01:39:30;7.82;;;5.07;;
2546;SDS011;1283;47.982;7.834;2024-03-07T01:41:57;7.15;;;5.03;;
2546;SDS011;1283;47.982;7.834;2024-03-07T01:44:25;7.32;;;4.93;;
2546;SDS011;1283;47.982;7.834;2024-03-07T01:46:51;8.65;;;5.43;;
2546;SDS011;1283;47.982;7.834;2024-03-07T01:49:18;7.07;;;5.15;;
2546;SDS011;1283;47.982;7.834;2024-03-07T01:51:44;7.45;;;5.43;;
2546;SDS011;1283;47.982;7.834;2024-03-07T01:54:11;7.25;;;4.90;;
2546;SDS011;1283;47.982;7.834;2024-03-07T01:56:37;7.85;;;4.68;;
2546;SDS011;1283;47.982;7.834;2024-03-07T01:59:05;8.43;;;4.72;;
2546;SDS011;1283;47.982;7.834;2024-03-07T02:01:34;10.77;;;5.28;;
2546;SDS011;1283;47.982;7.834;2024-03-07T02:04:02;8.98;;;5.50;;
2546;SDS011;1283;47.982;7.834;2024-03-07T02:06:29;7.95;;;4.88;;
2546;SDS011;1283;47.982;7.834;2024-03-07T02:08:55;7.25;;;4.43;;
2546;SDS011;1283;47.982;7.834;2024-03-07T02:11:22;8.00;;;4.90;;
2546;SDS011;1283;47.982;7.834;2024-03-07T02:13:49;7.20;;;4.90;;
2546;SDS011;1283;47.982;7.834;2024-03-07T02:16:16;7.05;;;4.68;;
2546;SDS011;1283;47.982;7.834;2024-03-07T02:18:44;11.27;;;5.07;;
2546;SDS011;1283;47.982;7.834;2024-03-07T02:21:12;8.80;;;5.43;;
2546;SDS011;1283;47.982;7.834;2024-03-07T02:23:39;8.85;;;5.38;;
2546;SDS011;1283;47.982;7.834;2024-03-07T02:26:06;7.88;;;5.47;;
2546;SDS011;1283;47.982;7.834;2024-03-07T02:28:33;8.50;;;4.82;;
2546;SDS011;1283;47.982;7.834;2024-03-07T02:30:59;8.35;;;5.43;;
2546;SDS011;1283;47.982;7.834;2024-03-07T02:33:26;9.70;;;5.20;;
2546;SDS011;1283;47.982;7.834;2024-03-07T02:35:52;7.55;;;5.00;;
2546;SDS011;1283;47.982;7.834;2024-03-07T02:38:20;8.10;;;5.47;;
2546;SDS011;1283;47.982;7.834;2024-03-07T02:40:47;7.75;;;5.22;;
2546;SDS011;1283;47.982;7.834;2024-03-07T02:43:13;7.90;;;5.35;;
2546;SDS011;1283;47.982;7.834;2024-03-07T02:45:39;8.98;;;5.38;;
2546;SDS011;1283;47.982;7.834;2024-03-07T02:48:06;7.45;;;4.97;;
2546;SDS011;1283;47.982;7.834;2024-03-07T02:50:34;7.30;;;4.72;;
2546;SDS011;1283;47.982;7.834;2024-03-07T02:53:02;7.70;;;4.82;;
2546;SDS011;1283;47.982;7.834;2024-03-07T02:55:30;8.82;;;5.10;;
2546;SDS011;1283;47.982;7.834;2024-03-07T02:57:57;11.70;;;5.18;;
2546;SDS011;1283;47.982;7.834;2024-03-07T03:00:24;10.52;;;4.72;;
2546;SDS011;1283;47.982;7.834;2024-03-07T03:02:52;7.28;;;5.03;;
2546;SDS011;1283;47.982;7.834;2024-03-07T03:05:19;6.90;;;4.80;;
2546;SDS011;1283;47.982;7.834;2024-03-07T03:07:45;8.00;;;4.97;;
2546;SDS011;1283;47.982;7.834;2024-03-07T03:10:17;7.07;;;4.57;;
2546;SDS011;1283;47.982;7.834;2024-03-07T03:12:47;5.63;;;4.10;;
2546;SDS011;1283;47.982;7.834;2024-03-07T03:15:13;9.05;;;5.43;;
2546;SDS011;1283;47.982;7.834;2024-03-07T03:17:40;7.40;;;5.03;;
2546;SDS011;1283;47.982;7.834;2024-03-07T03:20:07;7.95;;;5.13;;
2546;SDS011;1283;47.982;7.834;2024-03-07T03:22:49;7.75;;;4.80;;
2546;SDS011;1283;47.982;7.834;2024-03-07T03:25:16;9.57;;;5.05;;
2546;SDS011;1283;47.982;7.834;2024-03-07T03:27:43;10.95;;;4.72;;
2546;SDS011;1283;47.982;7.834;2024-03-07T03:30:11;7.28;;;4.80;;
2546;SDS011;1283;47.982;7.834;2024-03-07T03:32:39;7.45;;;4.70;;
2546;SDS011;1283;47.982;7.834;2024-03-07T03:35:06;7.70;;;4.70;;
2546;SDS011;1283;47.982;7.834;2024-03-07T03:37:34;8.50;;;5.10;;
2546;SDS011;1283;47.982;7.834;2024-03-07T03:40:00;7.03;;;4.82;;
2546;SDS011;1283;47.982;7.834;2024-03-07T03:42:27;7.13;;;4.72;;
2546;SDS011;1283;47.982;7.834;2024-03-07T03:44:54;6.78;;;4.35;;
2546;SDS011;1283;47.982;7.834;2024-03-07T03:47:21;7.03;;;4.32;;
2546;SDS011;1283;47.982;7.834;2024-03-07T03:49:48;6.50;;;4.20;;
2546;SDS011;1283;47.982;7.834;2024-03-07T03:52:14;6.85;;;4.65;;
2546;SDS011;1283;47.982;7.834;2024-03-07T03:54:41;6.97;;;4.45;;
2546;SDS011;1283;47.982;7.834;2024-03-07T03:57:07;7.50;;;4.80;;
2546;SDS011;1283;47.982;7.834;2024-03-07T03:59:33;5.45;;;3.85;;
2546;SDS011;1283;47.982;7.834;2024-03-07T04:02:00;5.30;;;3.67;;
2546;SDS011;1283;47.982;7.834;2024-03-07T04:04:31;6.05;;;3.63;;
2546;SDS011;1283;47.982;7.834;2024-03-07T04:06:57;7.05;;;4.07;;
2546;SDS011;1283;47.982;7.834;2024-03-07T04:09:24;6.22;;;4.13;;
2546;SDS011;1283;47.982;7.834;2024-03-07T04:11:51;5.82;;;4.05;;
2546;SDS011;1283;47.982;7.834;2024-03-07T04:14:17;6.30;;;4.22;;
2546;SDS011;1283;47.982;7.834;2024-03-07T04:16:44;6.78;;;3.90;;
2546;SDS011;1283;47.982;7.834;2024-03-07T04:19:11;7.15;;;4.80;;
2546;SDS011;1283;47.982;7.834;2024-03-07T04:21:39;6.70;;;4.28;;
2546;SDS011;1283;47.982;7.834;2024-03-07T04:24:06;7.13;;;4.28;;
2546;SDS011;1283;47.982;7.834;2024-03-07T04:26:33;7.30;;;4.50;;
2546;SDS011;1283;47.982;7.834;2024-03-07T04:28:59;6.30;;;4.25;;
2546;SDS011;1283;47.982;7.834;2024-03-07T04:31:26;6.88;;;4.40;;
2546;SDS011;1283;47.982;7.834;2024-03-07T04:33:52;6.55;;;4.05;;
2546;SDS011;1283;47.982;7.834;2024-03-07T04:36:18;5.88;;;4.20;;
2546;SDS011;1283;47.982;7.834;2024-03-07T04:38:46;6.95;;;4.38;;
2546;SDS011;1283;47.982;7.834;2024-03-07T04:41:12;6.88;;;4.50;;
2546;SDS011;1283;47.982;7.834;2024-03-07T04:43:40;7.40;;;3.55;;
2546;SDS011;1283;47.982;7.834;2024-03-07T04:46:07;7.75;;;4.30;;
2546;SDS011;1283;47.982;7.834;2024-03-07T04:48:34;5.57;;;4.25;;
2546;SDS011;1283;47.982;7.834;2024-03-07T04:51:00;8.10;;;5.10;;
2546;SDS011;1283;47.982;7.834;2024-03-07T04:53:27;8.57;;;5.47;;
2546;SDS011;1283;47.982;7.834;2024-03-07T04:55:55;10.35;;;5.43;;
2546;SDS011;1283;47.982;7.834;2024-03-07T04:58:22;9.15;;;5.43;;
2546;SDS011;1283;47.982;7.834;2024-03-07T05:00:48;8.90;;;5.18;;
2546;SDS011;1283;47.982;7.834;2024-03-07T05:03:14;9.43;;;5.75;;
2546;SDS011;1283;47.982;7.834;2024-03-07T05:05:41;11.43;;;5.45;;
2546;SDS011;1283;47.982;7.834;2024-03-07T05:08:07;10.48;;;6.28;;
2546;SDS011;1283;47.982;7.834;2024-03-07T05:10:35;11.30;;;6.03;;
2546;SDS011;1283;47.982;7.834;2024-03-07T05:13:02;10.70;;;6.18;;
2546;SDS011;1283;47.982;7.834;2024-03-07T05:15:31;9.75;;;6.40;;
2546;SDS011;1283;47.982;7.834;2024-03-07T05:17:57;9.77;;;5.70;;
2546;SDS011;1283;47.982;7.834;2024-03-07T05:20:24;10.23;;;5.65;;
2546;SDS011;1283;47.982;7.834;2024-03-07T05:22:53;9.63;;;5.95;;
2546;SDS011;1283;47.982;7.834;2024-03-07T05:25:20;11.27;;;6.20;;
2546;SDS011;1283;47.982;7.834;2024-03-07T05:27:47;15.00;;;7.72;;
2546;SDS011;1283;47.982;7.834;2024-03-07T05:30:16;13.63;;;7.53;;
2546;SDS011;1283;47.982;7.834;2024-03-07T05:32:43;14.88;;;7.63;;
2546;SDS011;1283;47.982;7.834;2024-03-07T05:35:09;16.20;;;8.68;;
2546;SDS011;1283;47.982;7.834;2024-03-07T05:37:36;18.50;;;8.70;;
2546;SDS011;1283;47.982;7.834;2024-03-07T05:40:07;16.92;;;8.07;;
2546;SDS011;1283;47.982;7.834;2024-03-07T05:42:34;17.48;;;8.65;;
2546;SDS011;1283;47.982;7.834;2024-03-07T05:45:00;16.00;;;8.50;;
2546;SDS011;1283;47.982;7.834;2024-03-07T05:47:28;17.63;;;7.82;;
2546;SDS011;1283;47.982;7.834;2024-03-07T05:49:54;14.32;;;7.45;;
2546;SDS011;1283;47.982;7.834;2024-03-07T05:52:21;14.32;;;7.93;;
2546;SDS011;1283;47.982;7.834;2024-03-07T05:54:47;17.38;;;8.55;;
2546;SDS011;1283;47.982;7.834;2024-03-07T05:57:14;23.30;;;9.82;;
2546;SDS011;1283;47.982;7.834;2024-03-07T05:59:40;18.35;;;9.50;;
2546;SDS011;1283;47.982;7.834;2024-03-07T06:02:06;21.52;;;10.93;;
2546;SDS011;1283;47.982;7.834;2024-03-07T06:04:34;37.95;;;10.60;;
2546;SDS011;1283;47.982;7.834;2024-03-07T06:07:01;35.10;;;10.88;;
2546;SDS011;1283;47.982;7.834;2024-03-07T06:09:27;39.78;;;11.60;;
2546;SDS011;1283;47.982;7.834;2024-03-07T06:11:53;120.97;;;12.15;;
2546;SDS011;1283;47.982;7.834;2024-03-07T06:14:20;40.00;;;11.57;;
2546;SDS011;1283;47.982;7.834;2024-03-07T06:16:48;33.10;;;11.10;;
2546;SDS011;1283;47.982;7.834;2024-03-07T06:19:14;22.23;;;10.90;;
2546;SDS011;1283;47.982;7.834;2024-03-07T06:21:42;20.33;;;10.63;;
2546;SDS011;1283;47.982;7.834;2024-03-07T06:24:08;25.45;;;10.93;;
2546;SDS011;1283;47.982;7.834;2024-03-07T06:26:36;25.90;;;11.15;;
2546;SDS011;1283;47.982;7.834;2024-03-07T06:29:11;23.30;;;10.63;;
2546;SDS011;1283;47.982;7.834;2024-03-07T06:31:38;23.67;;;11.60;;
2546;SDS011;1283;47.982;7.834;2024-03-07T06:34:04;25.10;;;12.07;;
2546;SDS011;1283;47.982;7.834;2024-03-07T06:36:31;22.65;;;10.70;;
2546;SDS011;1283;47.982;7.834;2024-03-07T06:38:59;28.00;;;11.57;;
2546;SDS011;1283;47.982;7.834;2024-03-07T06:41:25;30.90;;;12.13;;
2546;SDS011;1283;47.982;7.834;2024-03-07T06:43:52;24.90;;;11.95;;
2546;SDS011;1283;47.982;7.834;2024-03-07T06:46:20;25.73;;;12.18;;
2546;SDS011;1283;47.982;7.834;2024-03-07T06:48:47;26.25;;;12.20;;
2546;SDS011;1283;47.982;7.834;2024-03-07T06:51:13;28.58;;;13.50;;
2546;SDS011;1283;47.982;7.834;2024-03-07T06:53:39;34.80;;;14.52;;
2546;SDS011;1283;47.982;7.834;2024-03-07T06:56:07;32.38;;;13.63;;
2546;SDS011;1283;47.982;7.834;2024-03-07T06:58:34;35.15;;;13.90;;
2546;SDS011;1283;47.982;7.834;2024-03-07T07:01:01;31.65;;;15.43;;
2546;SDS011;1283;47.982;7.834;2024-03-07T07:03:32;34.45;;;15.18;;
2546;SDS011;1283;47.982;7.834;2024-03-07T07:05:58;33.95;;;14.15;;
2546;SDS011;1283;47.982;7.834;2024-03-07T07:08:25;29.55;;;14.35;;
2546;SDS011;1283;47.982;7.834;2024-03-07T07:10:54;31.20;;;13.60;;
2546;SDS011;1283;47.982;7.834;2024-03-07T07:13:22;24.98;;;12.57;;
2546;SDS011;1283;47.982;7.834;2024-03-07T07:15:49;23.30;;;11.63;;
2546;SDS011;1283;47.982;7.834;2024-03-07T07:18:15;28.92;;;11.63;;
2546;SDS011;1283;47.982;7.834;2024-03-07T07:20:42;27.02;;;11.40;;
2546;SDS011;1283;47.982;7.834;2024-03-07T07:23:08;28.90;;;13.02;;
2546;SDS011;1283;47.982;7.834;2024-03-07T07:25:35;33.33;;;14.18;;
2546;SDS011;1283;47.982;7.834;2024-03-07T07:28:02;33.65;;;15.10;;
2546;SDS011;1283;47.982;7.834;2024-03-07T07:30:31;27.98;;;12.82;;
2546;SDS011;1283;47.982;7.834;2024-03-07T07:32:58;27.70;;;13.00;;
2546;SDS011;1283;47.982;7.834;2024-03-07T07:35:25;28.30;;;13.10;;
2546;SDS011;1283;47.982;7.834;2024-03-07T07:37:51;27.05;;;14.25;;
2546;SDS011;1283;47.982;7.834;2024-03-07T07:40:21;34.30;;;15.57;;
2546;SDS011;1283;47.982;7.834;2024-03-07T07:42:49;34.22;;;14.98;;
2546;SDS011;1283;47.982;7.834;2024-03-07T07:45:16;28.80;;;13.88;;
2546;SDS011;1283;47.982;7.834;2024-03-07T07:47:45;37.30;;;15.85;;
2546;SDS011;1283;47.982;7.834;2024-03-07T07:50:14;34.50;;;15.35;;
2546;SDS011;1283;47.982;7.834;2024-03-07T07:52:42;31.35;;;15.07;;
2546;SDS011;1283;47.982;7.834;2024-03-07T07:55:11;30.10;;;15.25;;
2546;SDS011;1283;47.982;7.834;2024-03-07T07:57:40;31.35;;;15.13;;
2546;SDS011;1283;47.982;7.834;2024-03-07T08:00:09;29.88;;;14.80;;
2546;SDS011;1283;47.982;7.834;2024-03-07T08:02:37;36.55;;;15.85;;
2546;SDS011;1283;47.982;7.834;2024-03-07T08:05:05;38.22;;;16.38;;
2546;SDS011;1283;47.982;7.834;2024-03-07T08:07:31;33.25;;;16.02;;
2546;SDS011;1283;47.982;7.834;2024-03-07T08:09:58;32.67;;;15.50;;
2546;SDS011;1283;47.982;7.834;2024-03-07T08:12:24;37.92;;;15.27;;
2546;SDS011;1283;47.982;7.834;2024-03-07T08:14:51;33.38;;;15.07;;
2546;SDS011;1283;47.982;7.834;2024-03-07T08:17:18;39.78;;;15.55;;
2546;SDS011;1283;47.982;7.834;2024-03-07T08:19:45;31.08;;;15.52;;
2546;SDS011;1283;47.982;7.834;2024-03-07T08:22:14;33.47;;;15.85;;
2546;SDS011;1283;47.982;7.834;2024-03-07T08:24:41;38.03;;;17.83;;
2546;SDS011;1283;47.982;7.834;2024-03-07T08:27:07;39.08;;;16.63;;
2546;SDS011;1283;47.982;7.834;2024-03-07T08:29:36;35.53;;;17.70;;
2546;SDS011;1283;47.982;7.834;2024-03-07T08:32:02;40.78;;;19.60;;
2546;SDS011;1283;47.982;7.834;2024-03-07T08:34:29;35.33;;;17.63;;
2546;SDS011;1283;47.982;7.834;2024-03-07T08:36:56;35.67;;;16.92;;
2546;SDS011;1283;47.982;7.834;2024-03-07T08:39:23;44.35;;;20.40;;
2546;SDS011;1283;47.982;7.834;2024-03-07T08:41:50;46.42;;;20.90;;
2546;SDS011;1283;47.982;7.834;2024-03-07T08:44:17;41.83;;;19.27;;
2546;SDS011;1283;47.982;7.834;2024-03-07T08:46:44;47.40;;;20.67;;
2546;SDS011;1283;47.982;7.834;2024-03-07T08:49:10;46.97;;;20.80;;
2546;SDS011;1283;47.982;7.834;2024-03-07T08:51:39;45.05;;;20.38;;
2546;SDS011;1283;47.982;7.834;2024-03-07T08:54:06;48.08;;;21.80;;
2546;SDS011;1283;47.982;7.834;2024-03-07T08:56:34;52.15;;;23.00;;
2546;SDS011;1283;47.982;7.834;2024-03-07T08:59:01;55.25;;;22.35;;
2546;SDS011;1283;47.982;7.834;2024-03-07T09:01:27;48.85;;;21.77;;
2546;SDS011;1283;47.982;7.834;2024-03-07T09:03:54;48.45;;;22.52;;
2546;SDS011;1283;47.982;7.834;2024-03-07T09:06:22;50.90;;;21.95;;
2546;SDS011;1283;47.982;7.834;2024-03-07T09:08:49;58.22;;;23.55;;
2546;SDS011;1283;47.982;7.834;2024-03-07T09:11:15;50.65;;;22.60;;
2546;SDS011;1283;47.982;7.834;2024-03-07T09:13:43;54.58;;;22.05;;
2546;SDS011;1283;47.982;7.834;2024-03-07T09:16:11;50.85;;;23.30;;
2546;SDS011;1283;47.982;7.834;2024-03-07T09:18:37;49.45;;;21.52;;
2546;SDS011;1283;47.982;7.834;2024-03-07T09:21:04;47.30;;;21.45;;
2546;SDS011;1283;47.982;7.834;2024-03-07T09:23:31;46.40;;;21.52;;
2546;SDS011;1283;47.982;7.834;2024-03-07T09:25:57;48.05;;;21.67;;
2546;SDS011;1283;47.982;7.834;2024-03-07T09:28:24;49.95;;;22.83;;
2546;SDS011;1283;47.982;7.834;2024-03-07T09:30:52;49.85;;;21.10;;
2546;SDS011;1283;47.982;7.834;2024-03-07T09:33:20;43.50;;;20.55;;
2546;SDS011;1283;47.982;7.834;2024-03-07T09:35:46;40.08;;;18.58;;
2546;SDS011;1283;47.982;7.834;2024-03-07T09:38:13;45.03;;;20.35;;
2546;SDS011;1283;47.982;7.834;2024-03-07T09:40:39;47.88;;;19.55;;
2546;SDS011;1283;47.982;7.834;2024-03-07T09:43:06;41.45;;;19.65;;
2546;SDS011;1283;47.982;7.834;2024-03-07T09:45:35;47.75;;;22.50;;
2546;SDS011;1283;47.982;7.834;2024-03-07T09:48:05;49.70;;;23.42;;
2546;SDS011;1283;47.982;7.834;2024-03-07T09:50:34;51.30;;;23.65;;
2546;SDS011;1283;47.982;7.834;2024-03-07T09:53:01;54.55;;;24.30;;
2546;SDS011;1283;47.982;7.834;2024-03-07T09:55:29;56.30;;;25.00;;
2546;SDS011;1283;47.982;7.834;2024-03-07T09:57:56;53.97;;;24.65;;
2546;SDS011;1283;47.982;7.834;2024-03-07T10:00:25;57.10;;;25.52;;
2546;SDS011;1283;47.982;7.834;2024-03-07T10:02:53;47.45;;;23.33;;
2546;SDS011;1283;47.982;7.834;2024-03-07T10:05:23;49.60;;;23.92;;
2546;SDS011;1283;47.982;7.834;2024-03-07T10:07:52;47.00;;;23.15;;
2546;SDS011;1283;47.982;7.834;2024-03-07T10:10:19;46.45;;;22.73;;
2546;SDS011;1283;47.982;7.834;2024-03-07T10:12:46;51.92;;;22.73;;
2546;SDS011;1283;47.982;7.834;2024-03-07T10:15:13;56.63;;;24.42;;
2546;SDS011;1283;47.982;7.834;2024-03-07T10:17:42;57.72;;;26.42;;
2546;SDS011;1283;47.982;7.834;2024-03-07T10:20:09;60.35;;;25.88;;
2546;SDS011;1283;47.982;7.834;2024-03-07T10:22:40;62.65;;;26.67;;
2546;SDS011;1283;47.982;7.834;2024-03-07T10:25:07;54.33;;;25.38;;
2546;SDS011;1283;47.982;7.834;2024-03-07T10:27:35;55.53;;;25.35;;
2546;SDS011;1283;47.982;7.834;2024-03-07T10:30:02;58.35;;;26.52;;
2546;SDS011;1283;47.982;7.834;2024-03-07T10:32:32;52.88;;;26.25;;
2546;SDS011;1283;47.982;7.834;2024-03-07T10:34:59;63.28;;;28.98;;
2546;SDS011;1283;47.982;7.834;2024-03-07T10:37:25;67.30;;;28.13;;
2546;SDS011;1283;47.982;7.834;2024-03-07T10:39:53;63.70;;;27.25;;
2546;SDS011;1283;47.982;7.834;2024-03-07T10:42:20;57.80;;;26.92;;
2546;SDS011;1283;47.982;7.834;2024-03-07T10:44:49;61.50;;;27.88;;
2546;SDS011;1283;47.982;7.834;2024-03-07T10:47:17;60.53;;;28.05;;
2546;SDS011;1283;47.982;7.834;2024-03-07T10:49:48;59.60;;;27.30;;
2546;SDS011;1283;47.982;7.834;2024-03-07T10:52:23;56.90;;;27.67;;
2546;SDS011;1283;47.982;7.834;2024-03-07T10:54:57;66.20;;;29.83;;
2546;SDS011;1283;47.982;7.834;2024-03-07T10:57:31;59.97;;;27.90;;
2546;SDS011;1283;47.982;7.834;2024-03-07T11:00:02;58.20;;;26.85;;
2546;SDS011;1283;47.982;7.834;2024-03-07T11:02:50;60.80;;;25.95;;
2546;SDS011;1283;47.982;7.834;2024-03-07T11:05:18;56.33;;;25.88;;
2546;SDS011;1283;47.982;7.834;2024-03-07T11:07:45;59.33;;;26.95;;
2546;SDS011;1283;47.982;7.834;2024-03-07T11:10:14;61.83;;;26.83;;
2546;SDS011;1283;47.982;7.834;2024-03-07T11:12:42;58.05;;;25.20;;
2546;SDS011;1283;47.982;7.834;2024-03-07T11:15:11;54.95;;;24.42;;
2546;SDS011;1283;47.982;7.834;2024-03-07T11:17:40;51.67;;;24.50;;
2546;SDS011;1283;47.982;7.834;2024-03-07T11:20:19;55.15;;;24.35;;
2546;SDS011;1283;47.982;7.834;2024-03-07T11:22:47;54.22;;;24.35;;
2546;SDS011;1283;47.982;7.834;2024-03-07T11:25:17;52.28;;;24.80;;
2546;SDS011;1283;47.982;7.834;2024-03-07T11:27:50;50.97;;;22.50;;
2546;SDS011;1283;47.982;7.834;2024-03-07T11:30:19;52.83;;;24.00;;
2546;SDS011;1283;47.982;7.834;2024-03-07T11:32:46;56.08;;;24.88;;
2546;SDS011;1283;47.982;7.834;2024-03-07T11:35:14;54.33;;;24.10;;
2546;SDS011;1283;47.982;7.834;2024-03-07T11:37:41;52.20;;;23.65;;
2546;SDS011;1283;47.982;7.834;2024-03-07T11:40:11;47.08;;;21.92;;
2546;SDS011;1283;47.982;7.834;2024-03-07T11:42:45;48.80;;;22.25;;
2546;SDS011;1283;47.982;7.834;2024-03-07T11:45:13;44.38;;;22.83;;
2546;SDS011;1283;47.982;7.834;2024-03-07T11:50:16;43.83;;;20.63;;
2546;SDS011;1283;47.982;7.834;2024-03-07T11:52:44;44.90;;;21.55;;
2546;SDS011;1283;47.982;7.834;2024-03-07T11:55:11;43.03;;;21.40;;
2546;SDS011;1283;47.982;7.834;2024-03-07T11:57:38;40.33;;;20.73;;
2546;SDS011;1283;47.982;7.834;2024-03-07T12:00:09;36.70;;;19.40;;
2546;SDS011;1283;47.982;7.834;2024-03-07T12:02:38;43.35;;;21.95;;
2546;SDS011;1283;47.982;7.834;2024-03-07T12:05:05;42.28;;;21.83;;
2546;SDS011;1283;47.982;7.834;2024-03-07T12:07:32;45.78;;;22.95;;
2546;SDS011;1283;47.982;7.834;2024-03-07T12:09:59;47.47;;;23.33;;
2546;SDS011;1283;47.982;7.834;2024-03-07T12:12:28;44.72;;;21.27;;
2546;SDS011;1283;47.982;7.834;2024-03-07T12:14:55;42.60;;;21.98;;
2546;SDS011;1283;47.982;7.834;2024-03-07T12:17:23;42.63;;;22.15;;
2546;SDS011;1283;47.982;7.834;2024-03-07T12:19:50;38.50;;;21.13;;
2546;SDS011;1283;47.982;7.834;2024-03-07T12:22:18;48.75;;;21.25;;
2546;SDS011;1283;47.982;7.834;2024-03-07T12:24:48;44.33;;;21.67;;
2546;SDS011;1283;47.982;7.834;2024-03-07T12:27:15;45.03;;;20.60;;
2546;SDS011;1283;47.982;7.834;2024-03-07T12:29:42;43.70;;;21.27;;
2546;SDS011;1283;47.982;7.834;2024-03-07T12:32:09;39.22;;;20.83;;
2546;SDS011;1283;47.982;7.834;2024-03-07T12:34:40;45.10;;;21.80;;
2546;SDS011;1283;47.982;7.834;2024-03-07T12:37:10;47.72;;;22.52;;
2546;SDS011;1283;47.982;7.834;2024-03-07T12:39:40;44.55;;;22.67;;
2546;SDS011;1283;47.982;7.834;2024-03-07T12:42:12;43.50;;;21.55;;
2546;SDS011;1283;47.982;7.834;2024-03-07T12:44:39;46.58;;;20.63;;
2546;SDS011;1283;47.982;7.834;2024-03-07T12:47:08;45.90;;;23.08;;
2546;SDS011;1283;47.982;7.834;2024-03-07T12:49:35;47.90;;;25.08;;
2546;SDS011;1283;47.982;7.834;2024-03-07T12:52:03;49.10;;;24.20;;
2546;SDS011;1283;47.982;7.834;2024-03-07T12:54:32;48.67;;;23.95;;
2546;SDS011;1283;47.982;7.834;2024-03-07T12:56:59;50.92;;;23.30;;
2546;SDS011;1283;47.982;7.834;2024-03-07T12:59:25;52.78;;;24.88;;
2546;SDS011;1283;47.982;7.834;2024-03-07T13:01:51;47.95;;;23.70;;
2546;SDS011;1283;47.982;7.834;2024-03-07T13:04:19;47.95;;;23.58;;
2546;SDS011;1283;47.982;7.834;2024-03-07T13:06:45;53.97;;;23.77;;
2546;SDS011;1283;47.982;7.834;2024-03-07T13:09:13;50.88;;;22.83;;
2546;SDS011;1283;47.982;7.834;2024-03-07T13:11:40;47.05;;;24.23;;
2546;SDS011;1283;47.982;7.834;2024-03-07T13:14:11;46.05;;;22.80;;
2546;SDS011;1283;47.982;7.834;2024-03-07T13:16:38;47.35;;;23.67;;
2546;SDS011;1283;47.982;7.834;2024-03-07T13:19:04;47.47;;;23.48;;
2546;SDS011;1283;47.982;7.834;2024-03-07T13:21:31;49.22;;;23.48;;
2546;SDS011;1283;47.982;7.834;2024-03-07T13:23:59;46.33;;;22.95;;
2546;SDS011;1283;47.982;7.834;2024-03-07T13:26:27;47.88;;;23.60;;
2546;SDS011;1283;47.982;7.834;2024-03-07T13:28:55;50.95;;;24.48;;
2546;SDS011;1283;47.982;7.834;2024-03-07T13:31:24;47.15;;;23.27;;
2546;SDS011;1283;47.982;7.834;2024-03-07T13:33:50;50.33;;;24.35;;
2546;SDS011;1283;47.982;7.834;2024-03-07T13:36:17;50.17;;;23.13;;
2546;SDS011;1283;47.982;7.834;2024-03-07T13:38:47;53.65;;;22.98;;
2546;SDS011;1283;47.982;7.834;2024-03-07T13:41:14;47.67;;;23.80;;
2546;SDS011;1283;47.982;7.834;2024-03-07T13:43:42;48.13;;;23.52;;
2546;SDS011;1283;47.982;7.834;2024-03-07T13:46:09;45.45;;;22.98;;
2546;SDS011;1283;47.982;7.834;2024-03-07T13:48:37;43.08;;;22.73;;
2546;SDS011;1283;47.982;7.834;2024-03-07T13:51:05;46.72;;;23.10;;
2546;SDS011;1283;47.982;7.834;2024-03-07T13:53:33;48.90;;;22.23;;
2546;SDS011;1283;47.982;7.834;2024-03-07T13:56:16;50.13;;;23.02;;
2546;SDS011;1283;47.982;7.834;2024-03-07T13:59:07;46.67;;;23.42;;
2546;SDS011;1283;47.982;7.834;2024-03-07T14:01:43;43.85;;;23.10;;
2546;SDS011;1283;47.982;7.834;2024-03-07T14:04:32;50.33;;;24.15;;
2546;SDS011;1283;47.982;7.834;2024-03-07T14:07:11;44.05;;;21.35;;
2546;SDS011;1283;47.982;7.834;2024-03-07T14:09:54;42.95;;;21.55;;
2546;SDS011;1283;47.982;7.834;2024-03-07T14:12:46;38.83;;;21.27;;
2546;SDS011;1283;47.982;7.834;2024-03-07T14:15:52;45.08;;;22.77;;
2546;SDS011;1283;47.982;7.834;2024-03-07T14:21:49;49.55;;;23.38;;
2546;SDS011;1283;47.982;7.834;2024-03-07T14:24:34;41.63;;;21.95;;
2546;SDS011;1283;47.982;7.834;2024-03-07T14:27:18;48.42;;;23.58;;
2546;SDS011;1283;47.982;7.834;2024-03-07T14:29:54;49.20;;;23.05;;
2546;SDS011;1283;47.982;7.834;2024-03-07T14:32:36;42.25;;;21.42;;
2546;SDS011;1283;47.982;7.834;2024-03-07T14:35:07;42.78;;;21.08;;
2546;SDS011;1283;47.982;7.834;2024-03-07T14:37:46;41.80;;;21.48;;
2546;SDS011;1283;47.982;7.834;2024-03-07T14:40:16;44.85;;;21.65;;
2546;SDS011;1283;47.982;7.834;2024-03-07T14:42:44;45.42;;;22.42;;
2546;SDS011;1283;47.982;7.834;2024-03-07T14:45:13;39.75;;;18.77;;
2546;SDS011;1283;47.982;7.834;2024-03-07T14:47:47;38.45;;;19.85;;
2546;SDS011;1283;47.982;7.834;2024-03-07T14:50:14;43.75;;;19.52;;
2546;SDS011;1283;47.982;7.834;2024-03-07T14:52:41;38.72;;;19.05;;
2546;SDS011;1283;47.982;7.834;2024-03-07T14:55:09;37.58;;;17.85;;
2546;SDS011;1283;47.982;7.834;2024-03-07T14:57:38;35.53;;;18.85;;
2546;SDS011;1283;47.982;7.834;2024-03-07T15:00:07;45.33;;;19.27;;
2546;SDS011;1283;47.982;7.834;2024-03-07T15:02:45;41.55;;;19.90;;
2546;SDS011;1283;47.982;7.834;2024-03-07T15:05:12;36.17;;;18.00;;
2546;SDS011;1283;47.982;7.834;2024-03-07T15:07:40;38.58;;;18.77;;
2546;SDS011;1283;47.982;7.834;2024-03-07T15:10:07;36.35;;;18.45;;